createdAt,value
2023-04-22T00:01:35.456Z,6.65
2023-04-22T00:04:03.102Z,6.65
2023-04-22T00:06:32.020Z,7.50
2023-04-22T00:08:59.034Z,6.70
2023-04-22T00:11:26.424Z,6.18
2023-04-22T00:13:53.666Z,7.07
2023-04-22T00:16:21.562Z,7.60
2023-04-22T00:18:49.105Z,7.10
2023-04-22T00:21:16.830Z,7.07
2023-04-22T00:23:45.433Z,7.22
2023-04-22T00:26:12.619Z,7.00
2023-04-22T00:28:40.824Z,7.22
2023-04-22T00:31:07.977Z,6.78
2023-04-22T00:33:35.340Z,7.53
2023-04-22T00:36:02.507Z,7.28
2023-04-22T00:38:29.852Z,7.55
2023-04-22T00:40:57.782Z,7.15
2023-04-22T00:43:25.171Z,7.28
2023-04-22T00:45:53.233Z,7.05
2023-04-22T00:48:21.213Z,7.22
2023-04-22T00:50:48.838Z,7.05
2023-04-22T00:53:16.425Z,7.50
2023-04-22T00:55:44.244Z,6.90
2023-04-22T00:58:11.455Z,7.05
2023-04-22T01:00:39.120Z,7.80
2023-04-22T01:03:07.487Z,7.63
2023-04-22T01:05:36.137Z,6.72
2023-04-22T01:08:03.203Z,7.68
2023-04-22T01:10:30.820Z,6.80
2023-04-22T01:12:57.820Z,6.80
2023-04-22T01:15:25.300Z,6.80
2023-04-22T01:17:53.688Z,6.53
2023-04-22T01:20:23.264Z,6.70
2023-04-22T01:22:54.774Z,6.47
2023-04-22T01:25:24.790Z,6.65
2023-04-22T01:27:52.001Z,7.18
2023-04-22T01:30:19.800Z,6.28
2023-04-22T01:32:47.478Z,6.50
2023-04-22T01:35:14.982Z,6.55
2023-04-22T01:37:41.999Z,6.80
2023-04-22T01:40:10.282Z,6.20
2023-04-22T01:42:37.491Z,6.80
2023-04-22T01:45:06.003Z,6.82
2023-04-22T01:47:32.960Z,6.35
2023-04-22T01:50:00.277Z,8.20
2023-04-22T01:52:27.853Z,7.68
2023-04-22T01:54:55.531Z,6.90
2023-04-22T01:57:22.753Z,6.63
2023-04-22T01:59:50.227Z,6.00
2023-04-22T02:02:17.922Z,6.60
2023-04-22T02:04:45.420Z,7.32
2023-04-22T02:07:12.813Z,7.75
2023-04-22T02:09:40.151Z,6.68
2023-04-22T02:12:08.132Z,6.68
2023-04-22T02:14:35.345Z,6.88
2023-04-22T02:17:05.307Z,6.13
2023-04-22T02:19:32.574Z,6.95
2023-04-22T02:22:01.946Z,6.65
2023-04-22T02:24:29.207Z,5.90
2023-04-22T02:26:58.520Z,6.65
2023-04-22T02:29:25.900Z,6.72
2023-04-22T02:31:57.296Z,7.03
2023-04-22T02:34:24.786Z,7.15
2023-04-22T02:36:53.951Z,6.22
2023-04-22T02:39:23.416Z,6.80
2023-04-22T02:41:51.161Z,6.38
2023-04-22T02:44:18.658Z,6.97
2023-04-22T02:46:45.857Z,7.03
2023-04-22T02:49:13.085Z,6.82
2023-04-22T02:51:40.663Z,7.47
2023-04-22T02:54:07.881Z,6.45
2023-04-22T02:56:35.185Z,7.30
2023-04-22T02:59:02.473Z,6.43
2023-04-22T03:01:29.823Z,7.15
2023-04-22T03:04:00.971Z,7.38
2023-04-22T03:06:28.421Z,7.32
2023-04-22T03:08:57.245Z,7.70
2023-04-22T03:11:24.842Z,7.72
2023-04-22T03:13:51.967Z,7.00
2023-04-22T03:16:19.494Z,7.22
2023-04-22T03:18:47.421Z,7.32
2023-04-22T03:21:15.277Z,6.68
2023-04-22T03:23:43.034Z,7.50
2023-04-22T03:26:11.018Z,7.10
2023-04-22T03:28:40.507Z,7.55
2023-04-22T03:31:07.784Z,6.68
2023-04-22T03:33:35.523Z,6.47
2023-04-22T03:36:10.228Z,7.32
2023-04-22T03:38:37.750Z,6.75
2023-04-22T03:41:04.960Z,7.95
2023-04-22T03:43:40.309Z,8.27
2023-04-22T03:46:09.433Z,7.72
2023-04-22T03:48:40.599Z,7.30
2023-04-22T03:51:18.412Z,7.18
2023-04-22T03:53:46.204Z,7.45
2023-04-22T03:56:19.057Z,6.78
2023-04-22T03:58:47.672Z,7.25
2023-04-22T04:01:16.354Z,6.53
2023-04-22T04:03:48.720Z,7.03
2023-04-22T04:06:17.476Z,6.90
2023-04-22T04:08:44.696Z,7.45
2023-04-22T04:11:12.158Z,7.65
2023-04-22T04:13:39.615Z,7.60
2023-04-22T04:16:18.327Z,7.70
2023-04-22T04:18:51.282Z,6.68
2023-04-22T04:21:20.127Z,7.63
2023-04-22T04:23:50.954Z,6.68
2023-04-22T04:26:22.239Z,6.90
2023-04-22T04:28:55.529Z,7.53
2023-04-22T04:31:25.055Z,6.28
2023-04-22T04:33:53.953Z,6.45
2023-04-22T04:36:20.936Z,6.85
2023-04-22T04:38:49.101Z,6.90
2023-04-22T04:41:16.073Z,8.05
2023-04-22T04:43:46.429Z,6.90
2023-04-22T04:46:37.883Z,6.40
2023-04-22T04:49:12.911Z,6.82
2023-04-22T04:51:50.896Z,6.53
2023-04-22T04:54:18.706Z,7.05
2023-04-22T04:56:45.713Z,6.25
2023-04-22T04:59:14.658Z,6.57
2023-04-22T05:01:42.049Z,6.57
2023-04-22T05:04:12.758Z,6.53
2023-04-22T05:06:42.314Z,6.85
2023-04-22T05:09:10.235Z,6.65
2023-04-22T05:11:37.905Z,6.68
2023-04-22T05:14:12.516Z,6.72
2023-04-22T05:16:42.419Z,6.68
2023-04-22T05:19:10.538Z,7.03
2023-04-22T05:21:38.040Z,6.82
2023-04-22T05:24:05.820Z,6.57
2023-04-22T05:26:33.376Z,6.03
2023-04-22T05:29:03.239Z,6.75
2023-04-22T05:31:30.625Z,6.07
2023-04-22T05:33:58.514Z,5.80
2023-04-22T05:36:30.555Z,7.18
2023-04-22T05:38:59.763Z,6.82
2023-04-22T05:41:27.103Z,5.97
2023-04-22T05:43:56.443Z,5.85
2023-04-22T05:46:25.548Z,6.10
2023-04-22T05:48:54.870Z,6.40
2023-04-22T05:51:42.790Z,6.82
2023-04-22T05:54:12.425Z,5.88
2023-04-22T05:56:39.509Z,5.95
2023-04-22T05:59:06.982Z,6.40
2023-04-22T06:01:34.216Z,6.38
2023-04-22T06:04:06.611Z,6.20
2023-04-22T06:06:34.407Z,6.47
2023-04-22T06:09:02.097Z,5.50
2023-04-22T06:11:29.135Z,6.40
2023-04-22T06:13:56.551Z,7.47
2023-04-22T06:16:23.815Z,6.05
2023-04-22T06:18:51.527Z,6.03
2023-04-22T06:21:18.526Z,6.22
2023-04-22T06:23:46.315Z,6.70
2023-04-22T06:26:13.265Z,6.25
2023-04-22T06:28:41.301Z,6.30
2023-04-22T06:31:12.916Z,5.95
2023-04-22T06:33:41.256Z,5.93
2023-04-22T06:36:08.621Z,8.38
2023-04-22T06:38:36.944Z,6.68
2023-04-22T06:41:29.136Z,7.18
2023-04-22T06:44:01.048Z,6.57
2023-04-22T06:46:47.029Z,6.22
2023-04-22T06:49:38.375Z,6.18
2023-04-22T06:52:18.371Z,6.13
2023-04-22T06:54:45.942Z,7.38
2023-04-22T06:57:12.858Z,8.38
2023-04-22T06:59:41.205Z,7.13
2023-04-22T07:02:08.931Z,7.75
2023-04-22T07:04:39.486Z,7.13
2023-04-22T07:07:06.826Z,6.45
2023-04-22T07:09:34.098Z,6.35
2023-04-22T07:12:01.295Z,6.22
2023-04-22T07:14:31.691Z,5.80
2023-04-22T07:16:58.913Z,5.43
2023-04-22T07:19:26.991Z,6.32
2023-04-22T07:21:54.367Z,6.20
2023-04-22T07:24:21.982Z,5.43
2023-04-22T07:26:48.965Z,5.50
2023-04-22T07:29:16.402Z,5.78
2023-04-22T07:31:44.211Z,4.78
2023-04-22T07:34:12.424Z,5.32
2023-04-22T07:36:39.387Z,5.00
2023-04-22T07:39:06.739Z,4.68
2023-04-22T07:41:33.761Z,4.70
2023-04-22T07:44:01.094Z,5.30
2023-04-22T07:46:28.199Z,4.97
2023-04-22T07:48:55.463Z,5.03
2023-04-22T07:51:22.366Z,4.55
2023-04-22T07:53:50.068Z,4.90
2023-04-22T07:56:17.194Z,4.30
2023-04-22T07:58:44.695Z,4.57
2023-04-22T08:01:11.635Z,4.38
2023-04-22T08:03:39.257Z,4.15
2023-04-22T08:06:06.796Z,4.68
2023-04-22T08:08:33.937Z,4.07
2023-04-22T08:11:01.024Z,4.80
2023-04-22T08:13:28.205Z,4.05
2023-04-22T08:15:55.533Z,4.03
2023-04-22T08:18:22.807Z,4.80
2023-04-22T08:20:50.676Z,4.18
2023-04-22T08:23:17.826Z,4.70
2023-04-22T08:25:45.472Z,4.30
2023-04-22T08:28:13.009Z,4.13
2023-04-22T08:30:39.984Z,4.60
2023-04-22T08:33:07.910Z,3.95
2023-04-22T08:35:36.176Z,4.10
2023-04-22T08:38:03.775Z,4.00
2023-04-22T08:40:30.937Z,3.90
2023-04-22T08:42:58.231Z,3.50
2023-04-22T08:45:25.835Z,4.07
2023-04-22T08:47:54.253Z,4.35
2023-04-22T08:50:25.359Z,3.97
2023-04-22T08:55:20.546Z,4.25
2023-04-22T08:57:48.122Z,4.13
2023-04-22T09:00:16.417Z,3.38
2023-04-22T09:02:45.195Z,3.15
2023-04-22T09:05:14.239Z,3.95
2023-04-22T09:07:41.935Z,3.25
2023-04-22T09:10:11.835Z,3.13
2023-04-22T09:12:43.223Z,3.47
2023-04-22T09:15:11.076Z,3.63
2023-04-22T09:17:39.218Z,2.78
2023-04-22T09:20:08.000Z,2.78
2023-04-22T09:22:50.057Z,3.33
2023-04-22T09:25:27.792Z,2.97
2023-04-22T09:27:57.952Z,3.58
2023-04-22T09:30:26.779Z,2.78
2023-04-22T09:33:03.360Z,3.15
2023-04-22T09:35:35.102Z,3.00
2023-04-22T09:38:08.212Z,3.50
2023-04-22T09:40:36.622Z,2.85
2023-04-22T09:43:06.182Z,2.88
2023-04-22T09:45:34.466Z,2.40
2023-04-22T09:48:18.947Z,2.92
2023-04-22T09:50:49.812Z,2.40
2023-04-22T09:53:19.889Z,2.50
2023-04-22T09:55:50.154Z,2.47
2023-04-22T09:58:20.176Z,3.20
2023-04-22T10:00:53.401Z,2.63
2023-04-22T10:03:21.587Z,2.70
2023-04-22T10:05:48.755Z,2.72
2023-04-22T10:08:17.510Z,3.40
2023-04-22T10:10:45.150Z,2.50
2023-04-22T10:13:12.810Z,2.70
2023-04-22T10:15:42.279Z,2.80
2023-04-22T10:18:14.016Z,3.15
2023-04-22T10:20:43.078Z,3.53
2023-04-22T10:23:16.158Z,2.85
2023-04-22T10:25:43.096Z,2.95
2023-04-22T10:28:11.546Z,2.75
2023-04-22T10:30:39.614Z,2.65
2023-04-22T10:33:28.908Z,3.03
2023-04-22T10:36:09.717Z,3.35
2023-04-22T10:38:56.123Z,2.42
2023-04-22T10:41:30.575Z,3.17
2023-04-22T10:44:02.359Z,3.40
2023-04-22T10:46:38.081Z,3.03
2023-04-22T10:49:15.550Z,2.92
2023-04-22T10:51:51.370Z,2.90
2023-04-22T10:54:33.471Z,3.00
2023-04-22T10:57:08.136Z,2.90
2023-04-22T10:59:42.452Z,2.53
2023-04-22T11:02:12.132Z,2.90
2023-04-22T11:04:40.069Z,2.67
2023-04-22T11:07:12.859Z,2.60
2023-04-22T11:09:41.701Z,3.20
2023-04-22T11:12:39.726Z,3.10
2023-04-22T11:15:20.094Z,3.15
2023-04-22T11:17:50.504Z,2.80
2023-04-22T11:20:18.810Z,2.78
2023-04-22T11:22:51.222Z,2.85
2023-04-22T11:25:19.365Z,3.03
2023-04-22T11:27:46.867Z,2.75
2023-04-22T11:30:19.730Z,3.92
2023-04-22T11:32:49.690Z,2.65
2023-04-22T11:35:22.700Z,3.13
2023-04-22T11:37:52.840Z,2.78
2023-04-22T11:40:30.593Z,2.97
2023-04-22T11:43:01.566Z,3.10
2023-04-22T11:45:30.781Z,3.10
2023-04-22T11:47:58.534Z,3.10
2023-04-22T11:50:32.511Z,3.08
2023-04-22T11:53:02.606Z,3.10
2023-04-22T11:55:32.372Z,2.90
2023-04-22T11:58:05.610Z,3.47
2023-04-22T12:00:52.359Z,3.50
2023-04-22T12:03:24.678Z,3.08
2023-04-22T12:05:56.168Z,2.90
2023-04-22T12:08:31.448Z,3.05
2023-04-22T12:11:01.590Z,2.78
2023-04-22T12:13:34.758Z,2.47
2023-04-22T12:16:07.509Z,2.78
2023-04-22T12:18:39.735Z,2.90
2023-04-22T12:21:07.469Z,2.85
2023-04-22T12:23:54.161Z,3.15
2023-04-22T12:26:26.583Z,3.20
2023-04-22T12:28:55.947Z,3.10
2023-04-22T12:31:23.151Z,3.35
2023-04-22T12:33:50.450Z,2.90
2023-04-22T12:36:19.187Z,3.08
2023-04-22T12:38:46.158Z,3.50
2023-04-22T12:41:13.925Z,2.80
2023-04-22T12:43:40.774Z,2.70
2023-04-22T12:46:09.537Z,3.20
2023-04-22T12:48:37.754Z,3.13
2023-04-22T12:51:06.761Z,3.10
2023-04-22T12:53:34.419Z,2.80
2023-04-22T12:56:02.031Z,2.72
2023-04-22T12:58:28.965Z,2.55
2023-04-22T13:00:56.804Z,3.10
2023-04-22T13:03:24.389Z,2.67
2023-04-22T13:05:52.541Z,2.55
2023-04-22T13:08:19.468Z,2.90
2023-04-22T13:10:47.072Z,3.35
2023-04-22T13:13:18.364Z,2.72
2023-04-22T13:15:47.839Z,3.00
2023-04-22T13:18:16.971Z,3.45
2023-04-22T13:20:44.535Z,2.83
2023-04-22T13:23:12.976Z,3.22
2023-04-22T13:25:40.585Z,3.28
2023-04-22T13:28:07.548Z,4.03
2023-04-22T13:30:36.546Z,3.47
2023-04-22T13:33:03.518Z,3.00
2023-04-22T13:35:31.373Z,3.35
2023-04-22T13:37:58.880Z,3.78
2023-04-22T13:40:27.634Z,3.28
2023-04-22T13:42:55.437Z,3.08
2023-04-22T13:45:23.118Z,2.90
2023-04-22T13:47:50.161Z,3.17
2023-04-22T13:50:17.385Z,3.10
2023-04-22T13:52:44.611Z,2.67
2023-04-22T13:55:12.340Z,2.60
2023-04-22T13:57:39.205Z,3.20
2023-04-22T14:00:07.578Z,2.83
2023-04-22T14:02:40.796Z,2.88
2023-04-22T14:05:09.897Z,2.78
2023-04-22T14:07:37.375Z,3.15
2023-04-22T14:10:07.941Z,3.28
2023-04-22T14:12:34.914Z,3.40
2023-04-22T14:15:02.336Z,3.40
2023-04-22T14:17:29.932Z,3.42
2023-04-22T14:19:57.278Z,3.47
2023-04-22T14:22:24.298Z,3.25
2023-04-22T14:24:51.890Z,2.75
2023-04-22T14:27:18.795Z,3.00
2023-04-22T14:29:46.489Z,3.15
2023-04-22T14:32:13.401Z,3.58
2023-04-22T14:34:40.732Z,4.13
2023-04-22T14:37:07.945Z,3.58
2023-04-22T14:39:35.180Z,3.08
2023-04-22T14:42:03.849Z,3.25
2023-04-22T14:44:31.653Z,3.33
2023-04-22T14:46:59.096Z,3.33
2023-04-22T14:49:26.409Z,3.03
2023-04-22T14:51:53.686Z,3.08
2023-04-22T14:54:21.184Z,4.13
2023-04-22T14:56:48.155Z,2.90
2023-04-22T14:59:15.269Z,3.25
2023-04-22T15:01:43.219Z,3.58
2023-04-22T15:04:13.651Z,2.92
2023-04-22T15:06:41.359Z,3.55
2023-04-22T15:09:09.032Z,3.25
2023-04-22T15:11:36.354Z,3.30
2023-04-22T15:14:03.639Z,3.20
2023-04-22T15:16:30.750Z,3.58
2023-04-22T15:18:57.992Z,2.97
2023-04-22T15:21:24.940Z,3.90
2023-04-22T15:23:52.195Z,3.13
2023-04-22T15:26:19.078Z,2.88
2023-04-22T15:28:46.661Z,3.50
2023-04-22T15:31:13.760Z,3.45
2023-04-22T15:33:41.500Z,3.50
2023-04-22T15:36:09.726Z,3.35
2023-04-22T15:38:38.648Z,3.22
2023-04-22T15:41:05.772Z,3.45
2023-04-22T15:43:33.753Z,3.25
2023-04-22T15:46:01.342Z,3.25
2023-04-22T15:48:28.861Z,3.22
2023-04-22T15:50:56.160Z,2.97
2023-04-22T15:53:23.751Z,3.70
2023-04-22T15:55:51.671Z,3.90
2023-04-22T15:58:19.234Z,2.80
2023-04-22T16:00:46.992Z,3.63
2023-04-22T16:03:14.860Z,2.67
2023-04-22T16:05:42.197Z,3.30
2023-04-22T16:08:10.463Z,2.78
2023-04-22T16:10:38.014Z,2.92
2023-04-22T16:13:05.797Z,3.25
2023-04-22T16:15:33.653Z,2.75
2023-04-22T16:18:01.979Z,2.20
2023-04-22T16:20:29.853Z,2.78
2023-04-22T16:22:57.589Z,2.47
2023-04-22T16:25:24.766Z,2.78
2023-04-22T16:27:53.097Z,3.33
2023-04-22T16:30:20.626Z,2.40
2023-04-22T16:32:49.363Z,2.60
2023-04-22T16:35:16.550Z,2.90
2023-04-22T16:37:44.414Z,3.10
2023-04-22T16:40:11.752Z,4.03
2023-04-22T16:42:39.316Z,2.92
2023-04-22T16:45:08.006Z,3.05
2023-04-22T16:47:35.650Z,3.50
2023-04-22T16:50:03.269Z,3.85
2023-04-22T16:52:31.258Z,3.67
2023-04-22T16:54:58.713Z,3.65
2023-04-22T16:57:26.427Z,3.00
2023-04-22T16:59:53.477Z,3.45
2023-04-22T17:02:21.134Z,4.22
2023-04-22T17:04:48.539Z,3.05
2023-04-22T17:07:16.349Z,3.50
2023-04-22T17:09:43.880Z,3.47
2023-04-22T17:12:12.173Z,3.65
2023-04-22T17:14:39.515Z,3.97
2023-04-22T17:17:07.055Z,3.08
2023-04-22T17:19:34.058Z,3.58
2023-04-22T17:22:01.885Z,3.35
2023-04-22T17:24:29.009Z,3.00
2023-04-22T17:26:56.452Z,2.95
2023-04-22T17:29:24.101Z,3.67
2023-04-22T17:31:51.694Z,3.10
2023-04-22T17:34:19.482Z,3.35
2023-04-22T17:36:46.845Z,3.47
2023-04-22T17:39:14.042Z,3.40
2023-04-22T17:41:41.268Z,3.92
2023-04-22T17:44:08.946Z,3.42
2023-04-22T17:46:36.222Z,4.18
2023-04-22T17:49:03.115Z,3.20
2023-04-22T17:51:31.523Z,4.10
2023-04-22T17:53:58.614Z,3.25
2023-04-22T17:56:26.324Z,4.03
2023-04-22T17:58:53.244Z,3.30
2023-04-22T18:01:20.978Z,4.30
2023-04-22T18:03:48.123Z,4.35
2023-04-22T18:06:15.486Z,5.53
2023-04-22T18:08:42.591Z,4.82
2023-04-22T18:11:09.741Z,5.13
2023-04-22T18:13:36.948Z,4.85
2023-04-22T18:16:04.348Z,4.40
2023-04-22T18:18:31.439Z,4.00
2023-04-22T18:20:59.390Z,4.97
2023-04-22T18:23:26.883Z,5.57
2023-04-22T18:25:54.483Z,5.50
2023-04-22T18:28:21.792Z,4.82
2023-04-22T18:30:49.088Z,4.00
2023-04-22T18:33:16.437Z,4.75
2023-04-22T18:35:44.045Z,3.55
2023-04-22T18:38:10.914Z,3.78
2023-04-22T18:40:38.118Z,3.53
2023-04-22T18:43:05.544Z,4.05
2023-04-22T18:45:32.699Z,4.15
2023-04-22T18:47:59.665Z,4.10
2023-04-22T18:50:27.253Z,4.03
2023-04-22T18:52:54.263Z,3.92
2023-04-22T18:55:21.717Z,4.00
2023-04-22T18:57:49.291Z,4.30
2023-04-22T19:00:18.609Z,4.60
2023-04-22T19:02:48.880Z,4.00
2023-04-22T19:05:18.036Z,4.22
2023-04-22T19:07:45.289Z,4.65
2023-04-22T19:10:13.077Z,4.70
2023-04-22T19:12:41.035Z,4.53
2023-04-22T19:15:08.832Z,5.32
2023-04-22T19:17:36.095Z,5.47
2023-04-22T19:20:05.275Z,4.47
2023-04-22T19:22:32.425Z,3.97
2023-04-22T19:25:01.149Z,4.53
2023-04-22T19:27:28.241Z,5.53
2023-04-22T19:29:55.628Z,5.30
2023-04-22T19:32:22.620Z,5.50
2023-04-22T19:34:50.609Z,6.53
2023-04-22T19:37:18.581Z,5.68
2023-04-22T19:39:45.766Z,5.80
2023-04-22T19:42:13.189Z,6.45
2023-04-22T19:44:43.064Z,6.68
2023-04-22T19:47:10.183Z,6.45
2023-04-22T19:49:38.988Z,6.00
2023-04-22T19:52:10.985Z,5.68
2023-04-22T19:54:40.962Z,6.53
2023-04-22T19:57:10.634Z,7.13
2023-04-22T19:59:40.087Z,6.85
2023-04-22T20:02:08.268Z,6.90
2023-04-22T20:04:36.980Z,7.63
2023-04-22T20:07:05.523Z,7.25
2023-04-22T20:09:33.196Z,8.57
2023-04-22T20:12:00.399Z,8.32
2023-04-22T20:14:28.163Z,8.55
2023-04-22T20:16:55.546Z,8.30
2023-04-22T20:19:22.873Z,8.68
2023-04-22T20:21:50.847Z,9.32
2023-04-22T20:24:21.239Z,9.20
2023-04-22T20:26:49.846Z,8.25
2023-04-22T20:29:21.476Z,9.23
2023-04-22T20:31:48.817Z,8.52
2023-04-22T20:34:16.479Z,9.23
2023-04-22T20:36:43.767Z,9.38
2023-04-22T20:39:14.302Z,9.63
2023-04-22T20:41:41.782Z,9.93
2023-04-22T20:44:09.280Z,9.00
2023-04-22T20:46:37.551Z,8.90
2023-04-22T20:49:04.769Z,10.52
2023-04-22T20:51:32.178Z,8.80
2023-04-22T20:53:59.355Z,8.27
2023-04-22T20:56:27.400Z,9.40
2023-04-22T20:58:54.657Z,8.35
2023-04-22T21:01:22.352Z,9.73
2023-04-22T21:03:55.281Z,9.52
2023-04-22T21:06:23.440Z,9.52
2023-04-22T21:08:51.122Z,9.38
2023-04-22T21:11:18.983Z,8.93
2023-04-22T21:13:48.809Z,9.00
2023-04-22T21:16:19.541Z,8.38
2023-04-22T21:18:47.927Z,9.93
2023-04-22T21:21:17.541Z,9.18
2023-04-22T21:23:45.587Z,9.13
2023-04-22T21:26:14.054Z,9.68
2023-04-22T21:28:41.651Z,8.60
2023-04-22T21:31:08.882Z,9.55
2023-04-22T21:33:36.615Z,8.98
2023-04-22T21:36:04.014Z,7.53
2023-04-22T21:38:31.377Z,8.32
2023-04-22T21:40:58.340Z,8.77
2023-04-22T21:43:25.496Z,10.30
2023-04-22T21:45:52.870Z,10.07
2023-04-22T21:48:20.096Z,9.57
2023-04-22T21:50:47.014Z,10.25
2023-04-22T21:53:14.694Z,10.15
2023-04-22T21:55:41.736Z,10.88
2023-04-22T21:58:09.178Z,12.02
2023-04-22T22:00:37.908Z,12.82
2023-04-22T22:03:06.394Z,12.20
2023-04-22T22:05:33.542Z,13.27
2023-04-22T22:08:01.870Z,12.85
2023-04-22T22:10:28.845Z,13.90
2023-04-22T22:12:56.475Z,13.80
2023-04-22T22:15:23.458Z,14.00
2023-04-22T22:17:51.390Z,14.85
2023-04-22T22:20:20.536Z,14.05
2023-04-22T22:22:48.512Z,13.40
2023-04-22T22:25:16.494Z,14.73
2023-04-22T22:27:49.383Z,13.48
2023-04-22T22:30:18.271Z,14.65
2023-04-22T22:32:45.802Z,14.68
2023-04-22T22:35:13.458Z,16.05
2023-04-22T22:37:41.083Z,14.95
2023-04-22T22:40:09.039Z,15.48
2023-04-22T22:42:36.377Z,16.40
2023-04-22T22:45:05.175Z,17.45
2023-04-22T22:47:32.771Z,16.98
2023-04-22T22:50:00.474Z,19.90
2023-04-22T22:52:27.930Z,18.50
2023-04-22T22:54:55.306Z,17.75
2023-04-22T22:57:22.799Z,19.48
2023-04-22T22:59:49.924Z,19.00
2023-04-22T23:02:17.547Z,18.83
2023-04-22T23:04:45.844Z,20.02
2023-04-22T23:07:14.644Z,21.30
2023-04-22T23:09:42.522Z,21.33
2023-04-22T23:12:10.696Z,20.50
2023-04-22T23:14:37.639Z,20.92
2023-04-22T23:17:05.505Z,21.52
2023-04-22T23:19:32.627Z,22.63
2023-04-22T23:22:01.012Z,22.50
2023-04-22T23:24:28.479Z,22.77
2023-04-22T23:26:57.339Z,22.83
2023-04-22T23:29:24.894Z,23.58
2023-04-22T23:31:52.424Z,22.83
2023-04-22T23:34:23.712Z,24.00
2023-04-22T23:36:52.917Z,24.85
2023-04-22T23:39:19.835Z,24.70
2023-04-22T23:41:47.446Z,23.25
2023-04-22T23:44:14.310Z,24.95
2023-04-22T23:46:41.654Z,23.08
2023-04-22T23:49:08.902Z,24.77
2023-04-22T23:51:36.900Z,22.83
2023-04-22T23:54:04.486Z,22.98
2023-04-22T23:56:32.089Z,22.10
2023-04-22T23:58:59.498Z,22.88
